Time;durP1;ratioP1;P1;durP2;ratioP2;P2;SDS_P1;SDS_P2;PMS_P1;PMS_P2;Temp;Humidity;BMP_temperature;BMP_pressure;BME280_temperature;BME280_humidity;BME280_pressure;Samples;Min_cycle;Max_cycle;Signal;HPM_P1;HPM_P2
2021/05/17 00:02:02;;;;;;;;;;;;;;;8.60;100.00;97563.31;5070110;28;19925;-84
2021/05/17 00:04:32;;;;;;;;;;;;;;;8.74;100.00;97571.97;5056910;28;19924;-84
2021/05/17 00:07:01;;;;;;;;;;;;;;;8.96;100.00;97575.66;5069268;28;20295;-84
2021/05/17 00:09:29;;;;;;;;;;;;;;;9.11;100.00;97578.72;5068493;28;20288;-84
2021/05/17 00:11:56;;;;;;;;;;;;;;;9.15;100.00;97591.31;5044478;28;19925;-84
2021/05/17 00:14:24;;;;;;;;;;;;;;;9.07;100.00;97603.91;5075199;28;19924;-84
2021/05/17 00:16:52;;;;;;;;;;;;;;;9.18;100.00;97613.94;5074989;28;19925;-84
2021/05/17 00:19:19;;;;;;;;;;;;;;;9.27;100.00;97619.63;5082857;28;19948;-83
2021/05/17 00:21:47;;;;;;;;;;;;;;;9.24;100.00;97626.09;5070130;28;19924;-84
2021/05/17 00:24:15;;;;;;;;;;;;;;;9.14;100.00;97634.34;5045376;28;20407;-84
2021/05/17 00:26:42;;;;;;;;;;;;;;;9.18;100.00;97646.16;5061434;28;20012;-84
2021/05/17 00:29:09;;;;;;;;;;;;;;;9.18;100.00;97655.75;5058568;28;19979;-83
2021/05/17 00:31:37;;;;;;;;;;;;;;;9.23;100.00;97661.53;5063001;28;19931;-84
2021/05/17 00:34:22;;;;;;;;;;;;;;;9.25;100.00;97672.22;5043866;28;19952;-84
2021/05/17 00:36:49;;;;;;;;;;;;;;;9.26;100.00;97682.13;5057799;28;20399;-84
2021/05/17 00:39:17;;;;;;;;;;;;;;;9.16;100.00;97695.97;5041558;28;19985;-84
2021/05/17 00:41:45;;;;;;;;;;;;;;;9.22;100.00;97699.00;5091525;28;19978;-84
2021/05/17 00:44:12;;;;;;;;;;;;;;;9.15;100.00;97705.56;5058034;28;19928;-85
2021/05/17 00:46:40;;;;;;;;;;;;;;;9.18;100.00;97710.25;5058749;28;19931;-87
2021/05/17 00:49:08;;;;;;;;;;;;;;;9.22;100.00;97712.13;5025696;28;20428;-86
2021/05/17 00:51:36;;;;;;;;;;;;;;;9.10;100.00;97720.03;5071486;28;19931;-86
2021/05/17 00:54:04;;;;;;;;;;;;;;;9.30;100.00;97719.06;5057710;28;19951;-85
2021/05/17 00:56:32;;;;;;;;;;;;;;;9.15;100.00;97722.28;5074137;28;19925;-85
2021/05/17 00:58:59;;;;;;;;;;;;;;;9.04;100.00;97726.63;5074105;28;19930;-85
2021/05/17 01:01:28;;;;;;;;;;;;;;;9.12;100.00;97719.59;5041618;28;19932;-85
2021/05/17 01:03:55;;;;;;;;;;;;;;;8.89;100.00;97715.13;5037678;28;19925;-85
2021/05/17 01:06:45;;;;;;;;;;;;;;;9.05;100.00;97734.53;5039821;28;20387;-84
2021/05/17 01:09:13;;;;;;;;;;;;;;;9.00;100.00;97746.22;5048230;28;20093;-84
2021/05/17 01:11:44;;;;;;;;;;;;;;;8.88;100.00;97749.00;5056125;28;19932;-85
2021/05/17 01:14:13;;;;;;;;;;;;;;;8.81;100.00;97761.16;5065418;28;19979;-85
2021/05/17 01:16:42;;;;;;;;;;;;;;;8.73;100.00;97768.16;5022433;28;20392;-85
2021/05/17 01:19:20;;;;;;;;;;;;;;;8.63;100.00;97779.59;5049032;28;19924;-84
2021/05/17 01:21:56;;;;;;;;;;;;;;;8.63;100.00;97788.69;5038075;28;20328;-85
2021/05/17 01:24:23;;;;;;;;;;;;;;;8.57;100.00;97804.38;5073748;28;20586;-85
2021/05/17 01:26:51;;;;;;;;;;;;;;;8.56;100.00;97805.63;5056398;28;19925;-84
2021/05/17 01:29:19;;;;;;;;;;;;;;;8.59;100.00;97815.09;5070605;28;19964;-84
2021/05/17 01:31:47;;;;;;;;;;;;;;;8.69;100.00;97825.91;5047732;28;19925;-85
2021/05/17 01:34:15;;;;;;;;;;;;;;;8.59;100.00;97829.78;5068844;28;19935;-84
2021/05/17 01:36:43;;;;;;;;;;;;;;;8.59;100.00;97838.16;5053446;28;19925;-85
2021/05/17 01:39:14;;;;;;;;;;;;;;;8.53;100.00;97837.13;5067742;28;19925;-85
2021/05/17 01:41:42;;;;;;;;;;;;;;;8.47;100.00;97836.09;5072664;28;19929;-84
2021/05/17 01:44:12;;;;;;;;;;;;;;;8.47;100.00;97838.88;5073274;28;19924;-85
2021/05/17 01:46:45;;;;;;;;;;;;;;;8.46;100.00;97851.25;5056612;28;19931;-85
2021/05/17 01:49:14;;;;;;;;;;;;;;;8.45;100.00;97852.44;5076715;28;19932;-85
2021/05/17 01:51:43;;;;;;;;;;;;;;;8.39;100.00;97854.19;5068701;28;20399;-85
2021/05/17 01:54:11;;;;;;;;;;;;;;;8.41;100.00;97856.53;5036991;28;19925;-85
2021/05/17 01:56:41;;;;;;;;;;;;;;;8.48;100.00;97903.69;5036427;28;20371;-85
2021/05/17 01:59:26;;;;;;;;;;;;;;;8.48;100.00;97917.59;5064591;28;20299;-85
2021/05/17 02:01:53;;;;;;;;;;;;;;;8.50;100.00;97932.66;5059001;28;20057;-85
2021/05/17 02:04:21;;;;;;;;;;;;;;;8.53;100.00;97940.13;5089595;28;19925;-85
2021/05/17 02:06:48;;;;;;;;;;;;;;;8.59;100.00;97943.94;5058791;28;19925;-85
2021/05/17 02:09:16;;;;;;;;;;;;;;;8.66;100.00;97952.09;5046417;28;19929;-85
2021/05/17 02:11:44;;;;;;;;;;;;;;;8.79;100.00;97961.31;5050190;28;20295;-85
2021/05/17 02:14:22;;;;;;;;;;;;;;;8.81;100.00;97969.25;5062880;28;19924;-85
2021/05/17 02:16:51;;;;;;;;;;;;;;;8.76;100.00;97972.56;5058597;28;19932;-85
2021/05/17 02:19:22;;;;;;;;;;;;;;;8.75;100.00;97971.75;5064398;28;19924;-85
2021/05/17 02:21:53;;;;;;;;;;;;;;;8.75;100.00;97974.53;5067126;28;19971;-85
2021/05/17 02:24:21;;;;;;;;;;;;;;;8.73;100.00;97985.34;5052745;28;19925;-85
2021/05/17 02:26:48;;;;;;;;;;;;;;;8.71;100.00;97987.00;5066770;28;19928;-85
2021/05/17 02:29:15;;;;;;;;;;;;;;;8.67;100.00;97986.31;5056379;28;19928;-85
2021/05/17 02:31:43;;;;;;;;;;;;;;;8.60;100.00;97978.91;5072613;28;19932;-85
2021/05/17 02:34:10;;;;;;;;;;;;;;;8.66;100.00;97985.53;5057283;28;19952;-85
2021/05/17 02:36:38;;;;;;;;;;;;;;;8.65;100.00;97983.97;5027851;28;19924;-85
2021/05/17 02:39:07;;;;;;;;;;;;;;;8.75;100.00;97985.69;5072363;28;20027;-85
2021/05/17 02:42:00;;;;;;;;;;;;;;;8.90;100.00;97992.47;5050348;28;19963;-85
2021/05/17 02:44:28;;;;;;;;;;;;;;;8.93;100.00;97988.03;5050340;28;19925;-85
2021/05/17 02:46:57;;;;;;;;;;;;;;;8.95;100.00;97988.38;5060375;28;19929;-85
2021/05/17 02:49:29;;;;;;;;;;;;;;;8.97;100.00;97995.06;5041204;28;19925;-85
2021/05/17 02:51:58;;;;;;;;;;;;;;;9.03;100.00;97996.09;5059644;28;19931;-85
2021/05/17 02:54:29;;;;;;;;;;;;;;;9.02;100.00;97997.31;5040324;28;19973;-85
2021/05/17 02:56:57;;;;;;;;;;;;;;;8.96;100.00;98004.66;5056555;28;19925;-85
2021/05/17 02:59:33;;;;;;;;;;;;;;;8.92;100.00;98003.94;5023412;28;19925;-86
2021/05/17 03:02:07;;;;;;;;;;;;;;;8.88;100.00;97992.13;5056434;28;20567;-85
2021/05/17 03:04:40;;;;;;;;;;;;;;;8.82;100.00;97988.31;5056830;28;20173;-85
2021/05/17 03:07:11;;;;;;;;;;;;;;;8.78;100.00;97995.94;5004334;28;20023;-85
2021/05/17 03:09:43;;;;;;;;;;;;;;;8.80;100.00;97996.31;5064591;28;19971;-85
2021/05/17 03:12:13;;;;;;;;;;;;;;;8.80;100.00;97993.50;5039131;28;19971;-86
2021/05/17 03:14:41;;;;;;;;;;;;;;;8.79;100.00;97997.53;5056061;28;19924;-85
2021/05/17 03:17:10;;;;;;;;;;;;;;;8.78;100.00;97993.16;5023348;28;20026;-85
2021/05/17 03:19:42;;;;;;;;;;;;;;;8.82;100.00;98005.00;5072870;28;19931;-85
2021/05/17 03:22:09;;;;;;;;;;;;;;;8.78;100.00;97998.72;5055934;28;19933;-85
2021/05/17 03:24:37;;;;;;;;;;;;;;;8.81;100.00;98003.47;5057101;28;20054;-85
2021/05/17 03:27:15;;;;;;;;;;;;;;;8.69;100.00;98000.59;5055997;28;19925;-85
2021/05/17 03:29:42;;;;;;;;;;;;;;;8.61;100.00;98002.78;5056896;28;19925;-85
2021/05/17 03:32:10;;;;;;;;;;;;;;;8.54;100.00;98005.72;5039967;28;19925;-85
2021/05/17 03:34:37;;;;;;;;;;;;;;;8.55;100.00;98017.63;5039416;28;19925;-85
2021/05/17 03:37:04;;;;;;;;;;;;;;;8.48;100.00;98013.03;5056271;28;19933;-85
2021/05/17 03:39:31;;;;;;;;;;;;;;;8.50;100.00;98012.59;5039880;28;19924;-85
2021/05/17 03:41:59;;;;;;;;;;;;;;;8.50;100.00;98020.94;5039870;28;19928;-86
2021/05/17 03:44:27;;;;;;;;;;;;;;;8.49;100.00;98020.16;5022690;28;19932;-87
2021/05/17 03:46:54;;;;;;;;;;;;;;;8.42;100.00;98027.91;5055434;28;19925;-86
2021/05/17 03:49:22;;;;;;;;;;;;;;;8.41;100.00;98029.91;5038985;28;19963;-86
2021/05/17 03:51:50;;;;;;;;;;;;;;;8.40;100.00;98031.13;5055859;28;19925;-86
2021/05/17 03:54:17;;;;;;;;;;;;;;;8.40;100.00;98036.69;5055290;28;19932;-86
2021/05/17 03:56:44;;;;;;;;;;;;;;;8.41;100.00;98038.25;5055835;28;19932;-85
2021/05/17 03:59:14;;;;;;;;;;;;;;;8.44;100.00;98040.16;5055369;28;19925;-85
2021/05/17 04:01:42;;;;;;;;;;;;;;;8.49;100.00;98053.56;5071500;28;19925;-86
2021/05/17 04:04:09;;;;;;;;;;;;;;;8.49;100.00;98048.00;5043001;28;20403;-85
2021/05/17 04:06:46;;;;;;;;;;;;;;;8.51;100.00;98044.78;5053295;28;20392;-85
2021/05/17 04:14:45;;;;;;;;;;;;;;;8.56;100.00;98053.41;5055244;28;19925;-85
2021/05/17 04:17:12;;;;;;;;;;;;;;;8.61;100.00;98058.47;5039397;28;19924;-85
2021/05/17 04:19:40;;;;;;;;;;;;;;;8.66;100.00;98052.34;5056018;28;19932;-85
2021/05/17 04:22:07;;;;;;;;;;;;;;;8.73;100.00;98052.19;5055105;28;19929;-85
2021/05/17 04:24:34;;;;;;;;;;;;;;;8.77;100.00;98052.88;5055524;28;19931;-85
2021/05/17 04:27:01;;;;;;;;;;;;;;;8.77;100.00;98052.88;5038478;28;20797;-84
2021/05/17 04:29:28;;;;;;;;;;;;;;;8.79;100.00;98052.44;5054933;28;19932;-85
2021/05/17 04:31:56;;;;;;;;;;;;;;;8.79;100.00;98049.66;5055069;28;19928;-85
2021/05/17 04:34:23;;;;;;;;;;;;;;;8.80;100.00;98054.78;5038330;28;20019;-85
2021/05/17 04:36:50;;;;;;;;;;;;;;;8.83;100.00;98058.72;5055855;28;19960;-85
2021/05/17 04:39:19;;;;;;;;;;;;;;;8.88;100.00;98053.41;5054654;28;19925;-85
2021/05/17 04:41:46;;;;;;;;;;;;;;;8.93;100.00;98057.66;5054685;28;20384;-85
2021/05/17 04:44:15;;;;;;;;;;;;;;;8.90;100.00;98050.19;5054389;28;19931;-85
2021/05/17 04:46:42;;;;;;;;;;;;;;;8.97;100.00;98059.13;5038091;28;19948;-85
2021/05/17 04:49:09;;;;;;;;;;;;;;;9.04;100.00;98055.41;5054343;28;19924;-85
2021/05/17 04:51:37;;;;;;;;;;;;;;;9.03;100.00;98054.59;5037697;28;20471;-85
2021/05/17 04:54:04;;;;;;;;;;;;;;;9.06;100.00;98059.31;5055378;28;19924;-85
2021/05/17 04:56:31;;;;;;;;;;;;;;;9.06;100.00;98053.72;5071174;28;19925;-85
2021/05/17 04:58:59;;;;;;;;;;;;;;;9.08;100.00;98056.88;5037399;28;19943;-85
2021/05/17 05:01:26;;;;;;;;;;;;;;;9.11;100.00;98058.78;5021283;28;19924;-85
2021/05/17 05:03:53;;;;;;;;;;;;;;;9.16;100.00;98061.03;5037972;28;19925;-85
2021/05/17 05:06:20;;;;;;;;;;;;;;;9.13;100.00;98064.69;5053954;28;19928;-85
2021/05/17 05:08:48;;;;;;;;;;;;;;;8.98;100.00;98052.34;5053866;28;19932;-85
2021/05/17 05:11:15;;;;;;;;;;;;;;;8.87;100.00;98046.28;5037607;28;19975;-85
2021/05/17 05:13:42;;;;;;;;;;;;;;;8.95;100.00;98041.31;5054012;28;19925;-85
2021/05/17 05:16:09;;;;;;;;;;;;;;;9.03;100.00;98037.88;5053128;28;20422;-85
2021/05/17 05:18:36;;;;;;;;;;;;;;;9.10;100.00;98031.34;5054100;28;19924;-85
2021/05/17 05:21:03;;;;;;;;;;;;;;;9.18;100.00;98029.94;5021111;28;20019;-85
2021/05/17 05:23:31;;;;;;;;;;;;;;;9.24;100.00;98032.97;5037257;28;19929;-85
2021/05/17 05:28:35;;;;;;;;;;;;;;;9.31;100.00;98032.78;5036911;28;20016;-85
2021/05/17 05:31:11;;;;;;;;;;;;;;;9.34;100.00;98029.13;5037299;28;20426;-85
2021/05/17 05:33:38;;;;;;;;;;;;;;;9.34;100.00;98018.75;5054758;28;19975;-84
2021/05/17 05:36:05;;;;;;;;;;;;;;;9.21;100.00;98014.34;5053482;28;19924;-84
2021/05/17 05:38:33;;;;;;;;;;;;;;;8.97;100.00;98009.00;5053038;28;19924;-85
2021/05/17 05:41:07;;;;;;;;;;;;;;;9.09;100.00;98008.28;5067031;28;19929;-85
2021/05/17 05:43:34;;;;;;;;;;;;;;;9.13;100.00;98003.38;5052078;28;19925;-87
2021/05/17 05:46:01;;;;;;;;;;;;;;;9.14;100.00;97999.38;5052033;28;20007;-85
2021/05/17 05:48:29;;;;;;;;;;;;;;;9.14;100.00;97993.81;5031839;28;19932;-82
2021/05/17 05:50:56;;;;;;;;;;;;;;;9.24;100.00;97982.81;5050809;28;20121;-83
2021/05/17 05:53:23;;;;;;;;;;;;;;;9.30;100.00;97981.81;5042471;28;19948;-79
2021/05/17 05:55:53;;;;;;;;;;;;;;;9.26;100.00;97978.34;5047308;28;19924;-83
2021/05/17 05:58:20;;;;;;;;;;;;;;;9.31;100.00;97979.81;5046301;28;19931;-84
2021/05/17 06:00:48;;;;;;;;;;;;;;;9.36;100.00;97973.72;5028734;28;19994;-84
2021/05/17 06:03:15;;;;;;;;;;;;;;;9.27;100.00;97956.84;5042988;28;20011;-84
2021/05/17 06:05:44;;;;;;;;;;;;;;;9.37;100.00;97955.75;5019959;28;20433;-83
2021/05/17 06:08:11;;;;;;;;;;;;;;;9.18;100.00;97942.78;5048487;28;19947;-82
2021/05/17 06:10:38;;;;;;;;;;;;;;;9.07;100.00;97915.19;5046633;28;19932;-82
2021/05/17 06:13:06;;;;;;;;;;;;;;;9.24;100.00;97910.34;5047585;28;19932;-84
2021/05/17 06:15:33;;;;;;;;;;;;;;;9.33;100.00;97911.25;5047149;28;19936;-84
2021/05/17 06:18:00;;;;;;;;;;;;;;;9.40;100.00;97907.47;5026449;28;19925;-84
2021/05/17 06:20:29;;;;;;;;;;;;;;;9.55;100.00;97895.47;5029298;28;20394;-83
2021/05/17 06:22:57;;;;;;;;;;;;;;;9.50;100.00;97903.56;5048628;28;20023;-79
2021/05/17 06:25:26;;;;;;;;;;;;;;;9.58;100.00;97904.94;5047074;28;20055;-83
2021/05/17 06:27:53;;;;;;;;;;;;;;;9.59;100.00;97898.91;5046124;28;19925;-83
2021/05/17 06:30:21;;;;;;;;;;;;;;;9.61;100.00;97893.69;5029730;28;19947;-83
2021/05/17 06:32:49;;;;;;;;;;;;;;;9.62;100.00;97894.47;5029513;28;20375;-84
2021/05/17 06:35:23;;;;;;;;;;;;;;;9.45;100.00;97879.06;5013043;28;19925;-84
2021/05/17 06:37:51;;;;;;;;;;;;;;;9.50;100.00;97886.84;5047208;28;19925;-83
2021/05/17 06:40:18;;;;;;;;;;;;;;;9.71;100.00;97880.66;5047764;28;20423;-84
2021/05/17 06:42:46;;;;;;;;;;;;;;;9.81;100.00;97880.31;5014202;28;20387;-84
2021/05/17 06:45:13;;;;;;;;;;;;;;;10.04;100.00;97887.56;5016469;28;20478;-85
2021/05/17 06:47:42;;;;;;;;;;;;;;;10.15;100.00;97871.25;5049495;28;20346;-83
2021/05/17 06:50:09;;;;;;;;;;;;;;;10.05;100.00;97869.56;5051088;28;20376;-86
2021/05/17 06:52:37;;;;;;;;;;;;;;;10.02;100.00;97873.25;5051047;28;19929;-81
2021/05/17 06:55:11;;;;;;;;;;;;;;;10.27;100.00;97864.88;5051387;28;19932;-84
2021/05/17 07:00:21;;;;;;;;;;;;;;;9.89;100.00;97837.00;5052116;28;20450;-83
2021/05/17 07:02:50;;;;;;;;;;;;;;;9.87;100.00;97839.47;5034463;28;19929;-83
2021/05/17 07:05:20;;;;;;;;;;;;;;;10.07;100.00;97830.88;5034419;28;20336;-83
2021/05/17 07:13:17;;;;;;;;;;;;;;;11.51;100.00;97820.75;5042924;28;19974;-83
2021/05/17 07:15:45;;;;;;;;;;;;;;;11.69;100.00;97806.88;5034767;28;20010;-83
2021/05/17 07:18:12;;;;;;;;;;;;;;;12.09;100.00;97806.84;5050647;28;19960;-83
2021/05/17 07:25:56;;;;;;;;;;;;;;;13.73;100.00;97790.19;5067549;28;20376;-83
2021/05/17 07:28:24;;;;;;;;;;;;;;;14.06;100.00;97784.53;5067200;28;19971;-83
2021/05/17 07:30:52;;;;;;;;;;;;;;;13.71;100.00;97780.66;5034537;28;19924;-82
2021/05/17 07:33:19;;;;;;;;;;;;;;;13.51;100.00;97780.47;5052309;28;19924;-83
2021/05/17 07:35:46;;;;;;;;;;;;;;;13.36;100.00;97777.53;5050627;28;20277;-83
2021/05/17 07:38:14;;;;;;;;;;;;;;;13.20;100.00;97760.28;5034125;28;20327;-83
2021/05/17 07:40:41;;;;;;;;;;;;;;;13.21;100.00;97761.88;5053939;28;19932;-83
2021/05/17 07:43:08;;;;;;;;;;;;;;;13.05;100.00;97767.81;5054427;28;20510;-83
2021/05/17 07:45:44;;;;;;;;;;;;;;;12.41;100.00;97759.44;5055470;28;20392;-83
2021/05/17 07:48:12;;;;;;;;;;;;;;;11.63;100.00;97768.81;5018237;28;19925;-83
2021/05/17 07:50:40;;;;;;;;;;;;;;;11.42;100.00;97772.41;5066622;28;20411;-83
2021/05/17 07:53:08;;;;;;;;;;;;;;;11.72;100.00;97780.78;5054555;28;19932;-82
2021/05/17 07:55:35;;;;;;;;;;;;;;;11.89;100.00;97789.72;5054324;28;20019;-82
2021/05/17 07:58:02;;;;;;;;;;;;;;;12.08;100.00;97780.88;5054343;28;20388;-82
2021/05/17 08:00:30;;;;;;;;;;;;;;;12.24;100.00;97780.59;5053406;28;20023;-82
2021/05/17 08:03:00;;;;;;;;;;;;;;;12.47;100.00;97770.81;5040695;28;19931;-81
2021/05/17 08:05:31;;;;;;;;;;;;;;;11.70;100.00;97783.28;5047654;28;19933;-82
2021/05/17 08:07:59;;;;;;;;;;;;;;;11.75;100.00;97779.88;5053081;28;20214;-82
2021/05/17 08:10:27;;;;;;;;;;;;;;;11.92;100.00;97783.94;5052414;28;19925;-82
2021/05/17 08:12:54;;;;;;;;;;;;;;;12.04;100.00;97785.84;5053840;28;19925;-82
2021/05/17 08:15:22;;;;;;;;;;;;;;;11.68;100.00;97782.94;5055099;28;19931;-82
2021/05/17 08:17:50;;;;;;;;;;;;;;;11.83;100.00;97778.34;5053975;28;20276;-90
2021/05/17 08:20:18;;;;;;;;;;;;;;;11.76;100.00;97781.44;5051678;28;19975;-85
2021/05/17 08:22:45;;;;;;;;;;;;;;;11.86;100.00;97785.81;5051708;28;20376;-84
2021/05/17 08:25:12;;;;;;;;;;;;;;;11.96;100.00;97783.81;5068154;28;19995;-84
2021/05/17 08:27:39;;;;;;;;;;;;;;;12.17;100.00;97778.09;5035449;28;20296;-84
2021/05/17 08:30:07;;;;;;;;;;;;;;;12.52;100.00;97782.19;5051832;28;19978;-83
2021/05/17 08:32:34;;;;;;;;;;;;;;;12.79;100.00;97784.19;5052971;28;19925;-83
2021/05/17 08:35:02;;;;;;;;;;;;;;;13.22;100.00;97785.84;5054310;28;19929;-83
2021/05/17 08:37:29;;;;;;;;;;;;;;;13.67;100.00;97780.84;5047642;28;20038;-86
2021/05/17 08:39:56;;;;;;;;;;;;;;;14.13;100.00;97772.97;5044409;28;20274;-88
2021/05/17 08:42:29;;;;;;;;;;;;;;;15.30;100.00;97769.13;5015837;28;19928;-89
2021/05/17 08:44:57;;;;;;;;;;;;;;;16.09;100.00;97761.44;5016284;28;19925;-87
2021/05/17 08:47:24;;;;;;;;;;;;;;;15.59;100.00;97757.88;5064446;28;20118;-87
2021/05/17 08:49:51;;;;;;;;;;;;;;;14.88;100.00;97753.78;5047878;28;20387;-86
2021/05/17 08:52:19;;;;;;;;;;;;;;;14.60;100.00;97749.69;5048748;28;19925;-87
2021/05/17 08:54:46;;;;;;;;;;;;;;;14.39;100.00;97746.72;5049099;28;19925;-80
2021/05/17 08:57:16;;;;;;;;;;;;;;;14.07;100.00;97755.22;5048946;28;19950;-89
2021/05/17 08:59:45;;;;;;;;;;;;;;;13.73;100.00;97755.72;5040301;28;19995;-84
2021/05/17 09:02:12;;;;;;;;;;;;;;;13.61;100.00;97749.06;5049338;28;20014;-94
2021/05/17 09:04:41;;;;;;;;;;;;;;;14.53;100.00;97750.84;5009552;28;19936;-83
2021/05/17 09:07:08;;;;;;;;;;;;;;;15.73;100.00;97742.22;5048347;28;19931;-85
2021/05/17 09:09:36;;;;;;;;;;;;;;;16.16;100.00;97744.88;5042045;28;19929;-81
2021/05/17 09:12:05;;;;;;;;;;;;;;;16.78;100.00;97743.63;5044692;28;19935;-83
2021/05/17 09:14:33;;;;;;;;;;;;;;;16.53;100.00;97738.69;5048838;28;20385;-83
2021/05/17 09:17:01;;;;;;;;;;;;;;;16.99;100.00;97728.19;5049097;28;19932;-82
2021/05/17 09:19:34;;;;;;;;;;;;;;;17.27;100.00;97724.34;5031037;28;19952;-83
2021/05/17 09:22:03;;;;;;;;;;;;;;;17.20;100.00;97732.50;5047978;28;19947;-82
2021/05/17 09:24:34;;;;;;;;;;;;;;;16.80;100.00;97724.13;5049000;28;19924;-82
2021/05/17 09:27:02;;;;;;;;;;;;;;;16.13;100.00;97728.19;5047716;28;19932;-82
2021/05/17 09:29:34;;;;;;;;;;;;;;;15.68;100.00;97735.25;5047993;28;20019;-87
2021/05/17 09:32:17;;;;;;;;;;;;;;;14.49;100.00;97761.50;5046588;28;19924;-79
2021/05/17 09:34:56;;;;;;;;;;;;;;;11.95;100.00;97785.81;5047232;28;19929;-86
2021/05/17 09:37:24;;;;;;;;;;;;;;;10.75;100.00;97788.97;5046661;28;19963;-84
2021/05/17 09:39:53;;;;;;;;;;;;;;;10.27;100.00;97795.09;5046450;28;19924;-86
2021/05/17 09:42:22;;;;;;;;;;;;;;;9.94;100.00;97822.47;5048540;28;19925;-90
2021/05/17 09:44:49;;;;;;;;;;;;;;;9.74;100.00;97835.13;5047641;28;19971;-84
2021/05/17 09:47:20;;;;;;;;;;;;;;;9.45;100.00;97840.78;5048024;28;19925;-86
2021/05/17 09:49:49;;;;;;;;;;;;;;;9.11;100.00;97855.38;5048502;28;19932;-87
2021/05/17 09:52:20;;;;;;;;;;;;;;;8.93;100.00;97859.88;5012062;28;19929;-88
2021/05/17 09:54:58;;;;;;;;;;;;;;;8.86;100.00;97862.88;5013890;28;19971;-91
2021/05/17 09:57:36;;;;;;;;;;;;;;;8.85;100.00;97864.88;5036636;28;19991;-89
2021/05/17 10:04:55;;;;;;;;;;;;;;;8.82;100.00;97876.91;5054923;28;19963;-92
2021/05/17 10:07:22;;;;;;;;;;;;;;;8.85;100.00;97887.16;5004539;28;19928;-92
2021/05/17 10:09:50;;;;;;;;;;;;;;;9.04;100.00;97888.22;5002085;28;19929;-88
2021/05/17 10:12:18;;;;;;;;;;;;;;;9.11;100.00;97894.38;5031954;28;19925;-84
2021/05/17 10:14:45;;;;;;;;;;;;;;;9.18;100.00;97892.59;5047946;28;19931;-85
2021/05/17 10:17:13;;;;;;;;;;;;;;;9.16;100.00;97902.19;5047513;28;19925;-84
2021/05/17 10:19:40;;;;;;;;;;;;;;;9.25;100.00;97904.34;5046024;28;19956;-84
2021/05/17 10:22:08;;;;;;;;;;;;;;;9.42;100.00;97913.41;5045462;28;19925;-83
2021/05/17 10:24:35;;;;;;;;;;;;;;;9.48;100.00;97911.63;5047689;28;19954;-84
2021/05/17 10:27:02;;;;;;;;;;;;;;;9.53;100.00;97913.84;5046968;28;19974;-85
2021/05/17 10:29:34;;;;;;;;;;;;;;;9.62;100.00;97914.75;5046481;28;19932;-83
2021/05/17 10:32:02;;;;;;;;;;;;;;;9.65;100.00;97910.31;5029653;28;20351;-85
2021/05/17 10:34:29;;;;;;;;;;;;;;;9.68;100.00;97915.75;5046827;28;19963;-83
2021/05/17 10:37:02;;;;;;;;;;;;;;;9.83;100.00;97918.91;5050776;28;20010;-92
2021/05/17 10:39:42;;;;;;;;;;;;;;;9.90;100.00;97915.91;5059067;28;19970;-88
2021/05/17 10:42:36;;;;;;;;;;;;;;;10.00;100.00;97928.72;5043381;28;19948;-89
2021/05/17 10:48:15;;;;;;;;;;;;;;;10.23;100.00;97934.00;5016314;28;19925;-92
2021/05/17 10:50:45;;;;;;;;;;;;;;;10.26;100.00;97924.72;5027779;28;19924;-90
2021/05/17 10:53:32;;;;;;;;;;;;;;;10.30;100.00;97933.78;5018046;28;19924;-93
2021/05/17 10:55:59;;;;;;;;;;;;;;;10.31;100.00;97924.16;5020567;28;19944;-93
2021/05/17 11:01:31;;;;;;;;;;;;;;;10.45;100.00;97932.84;5049511;28;19929;-92
2021/05/17 11:04:19;;;;;;;;;;;;;;;10.41;100.00;97936.97;5000636;28;19938;-94
2021/05/17 11:07:06;;;;;;;;;;;;;;;10.50;100.00;97937.88;5011506;28;19932;-88
2021/05/17 11:09:49;;;;;;;;;;;;;;;10.78;100.00;97936.88;5028217;28;19928;-87
2021/05/17 11:12:25;;;;;;;;;;;;;;;11.10;100.00;97946.97;5050415;28;19925;-87
2021/05/17 11:15:12;;;;;;;;;;;;;;;11.50;100.00;97936.69;5031090;28;19939;-87
2021/05/17 11:17:55;;;;;;;;;;;;;;;11.75;100.00;97939.38;5017405;28;20019;-87
2021/05/17 11:20:44;;;;;;;;;;;;;;;12.22;100.00;97931.47;5055471;28;19948;-93
2021/05/17 11:23:32;;;;;;;;;;;;;;;12.64;100.00;97923.34;5036064;28;20007;-83
2021/05/17 11:26:06;;;;;;;;;;;;;;;12.84;100.00;97920.13;5037109;28;20379;-83
2021/05/17 11:28:33;;;;;;;;;;;;;;;12.90;100.00;97918.25;5050282;28;19932;-83
2021/05/17 11:34:00;;;;;;;;;;;;;;;12.72;100.00;97908.56;5049379;28;19925;-83
2021/05/17 11:36:30;;;;;;;;;;;;;;;12.65;100.00;97908.09;5049426;28;20035;-83
2021/05/17 11:39:19;;;;;;;;;;;;;;;12.63;100.00;97910.59;5050234;28;19931;-83
2021/05/17 11:41:46;;;;;;;;;;;;;;;12.64;100.00;97914.94;5036351;28;19963;-83
2021/05/17 11:44:15;;;;;;;;;;;;;;;12.53;100.00;97917.41;5047510;28;19925;-86
2021/05/17 11:46:46;;;;;;;;;;;;;;;12.36;100.00;97916.91;5032451;28;20380;-86
2021/05/17 11:49:17;;;;;;;;;;;;;;;12.37;100.00;97918.47;5028563;28;19925;-88
2021/05/17 11:51:46;;;;;;;;;;;;;;;12.06;100.00;97917.75;5039907;28;20296;-87
2021/05/17 11:54:13;;;;;;;;;;;;;;;11.98;100.00;97915.69;5040341;28;20404;-85
2021/05/17 11:56:48;;;;;;;;;;;;;;;11.85;100.00;97924.19;5052099;28;19929;-80
2021/05/17 11:59:17;;;;;;;;;;;;;;;11.40;100.00;97935.09;5052870;28;21157;-79
2021/05/17 12:01:45;;;;;;;;;;;;;;;11.30;100.00;97938.28;5069160;28;19929;-79
2021/05/17 12:04:16;;;;;;;;;;;;;;;11.03;100.00;97952.81;5054704;28;20272;-79
2021/05/17 12:06:44;;;;;;;;;;;;;;;10.79;100.00;97948.84;5054964;28;19931;-80
2021/05/17 12:09:11;;;;;;;;;;;;;;;10.77;100.00;97962.50;5053611;28;20277;-79
2021/05/17 12:11:49;;;;;;;;;;;;;;;10.56;100.00;97966.78;5054553;28;19932;-80
2021/05/17 12:14:16;;;;;;;;;;;;;;;10.38;100.00;97974.97;5054676;28;19925;-80
2021/05/17 12:16:43;;;;;;;;;;;;;;;10.29;100.00;97971.28;5053075;28;19925;-80
2021/05/17 12:19:14;;;;;;;;;;;;;;;10.24;100.00;97964.25;5054405;28;19933;-80
2021/05/17 12:21:41;;;;;;;;;;;;;;;10.38;100.00;97965.81;5053814;28;20006;-80
2021/05/17 12:24:22;;;;;;;;;;;;;;;10.46;100.00;97981.91;5054797;28;19925;-80
2021/05/17 12:27:09;;;;;;;;;;;;;;;10.63;100.00;97974.16;5054378;28;19935;-80
2021/05/17 12:29:48;;;;;;;;;;;;;;;10.56;100.00;97975.16;5054684;28;19925;-81
2021/05/17 12:32:16;;;;;;;;;;;;;;;10.48;100.00;97981.44;5053568;28;19979;-82
2021/05/17 12:35:00;;;;;;;;;;;;;;;10.41;100.00;97988.03;5053514;28;19959;-82
2021/05/17 12:37:29;;;;;;;;;;;;;;;10.33;100.00;97991.50;5053245;28;19925;-83
2021/05/17 12:40:12;;;;;;;;;;;;;;;10.19;100.00;97995.50;5053625;28;20019;-82
2021/05/17 12:42:40;;;;;;;;;;;;;;;10.15;100.00;98002.44;5051265;28;19939;-82
2021/05/17 12:45:13;;;;;;;;;;;;;;;9.98;100.00;98000.97;5053481;28;19924;-82
2021/05/17 12:47:43;;;;;;;;;;;;;;;9.92;100.00;98011.88;5052418;28;20380;-83
2021/05/17 12:50:18;;;;;;;;;;;;;;;9.99;100.00;98013.66;5052956;28;19925;-84
2021/05/17 12:52:45;;;;;;;;;;;;;;;10.08;100.00;98013.81;5036231;28;19925;-84
2021/05/17 12:55:20;;;;;;;;;;;;;;;10.16;100.00;98017.97;5035328;28;20014;-83
2021/05/17 12:57:52;;;;;;;;;;;;;;;10.29;100.00;98015.94;5036161;28;19971;-83
2021/05/17 13:00:34;;;;;;;;;;;;;;;10.30;100.00;98017.53;5036658;28;19953;-83
2021/05/17 13:03:02;;;;;;;;;;;;;;;10.49;100.00;98019.31;5052850;28;19994;-83
2021/05/17 13:05:47;;;;;;;;;;;;;;;10.76;100.00;98016.81;5053139;28;19954;-83
2021/05/17 13:08:14;;;;;;;;;;;;;;;10.99;100.00;98008.06;5052856;28;19924;-84
2021/05/17 13:10:58;;;;;;;;;;;;;;;11.13;100.00;98010.38;5036338;28;20074;-83
2021/05/17 13:13:46;;;;;;;;;;;;;;;11.51;100.00;98010.97;5036331;28;19967;-84
2021/05/17 13:16:14;;;;;;;;;;;;;;;11.55;100.00;98011.66;5036377;28;19929;-83
2021/05/17 13:19:16;;;;;;;;;;;;;;;11.17;100.00;98013.03;5052752;28;19932;-84
2021/05/17 13:22:33;;;;;;;;;;;;;;;10.96;100.00;98004.13;5053743;28;19935;-83
2021/05/17 13:31:01;;;;;;;;;;;;;;;10.98;100.00;98011.31;5052314;28;19929;-83
2021/05/17 13:33:29;;;;;;;;;;;;;;;11.34;100.00;98008.81;5053177;28;19925;-83
2021/05/17 13:36:02;;;;;;;;;;;;;;;11.64;100.00;98008.94;5003425;28;20327;-84
2021/05/17 13:38:31;;;;;;;;;;;;;;;11.94;100.00;98005.41;5051909;28;19925;-84
2021/05/17 13:40:58;;;;;;;;;;;;;;;12.01;100.00;98004.34;5032189;28;20155;-83